This is the latest recevied weather packets stored in our database for station/object FW1079. If no packets are shown the sender has not sent any weather packets the latest 10 day(s).
| Time | Temp. | Humidity | Pressure | Rain* | Wind** | Luminosity | Snow |
|---|---|---|---|---|---|---|---|
| 1777749561 | 11.67° C | 74% | 1022.1 hPa | 0 mm | - | - | - |
| 1777748358 | 12.22° C | 73% | 1022.1 hPa | 0 mm | - | - | - |
| 1777745958 | 13.33° C | 65% | 1021.1 hPa | 0 mm | - | - | - |
| 1777744159 | 15.56° C | 56% | 1021.1 hPa | 0 mm | - | - | - |
| 1777743561 | 16.67° C | 52% | 1021.1 hPa | 0 mm | - | - | - |
| 1777743258 | 17.22° C | 49% | 1021.1 hPa | 0 mm | - | - | - |
| 1777741458 | 18.89° C | 43% | 1021.1 hPa | 0 mm | - | - | - |
| 1777739958 | 20° C | 43% | 1022.1 hPa | 0 mm | - | - | - |
| 1777739361 | 20° C | 43% | 1022.1 hPa | 0 mm | - | - | - |
| 1777739058 | 20° C | 42% | 1022.1 hPa | 0 mm | - | - | - |
| 1777737258 | 20.56° C | 42% | 1022.1 hPa | 0 mm | - | - | - |
| 1777735758 | 20.56° C | 42% | 1022.1 hPa | 0 mm | - | - | - |
| 1777733961 | 20.56° C | 42% | 1023 hPa | 0 mm | - | - | - |
| 1777733662 | 20.56° C | 42% | 1023 hPa | 0 mm | - | - | - |
| 1777733058 | 20.56° C | 43% | 1023 hPa | 0 mm | - | - | - |
| 1777729458 | 21.11° C | 43% | 1023 hPa | 0 mm | - | - | - |
| 1777727958 | 21.11° C | 42% | 1023 hPa | 0 mm | - | - | - |
| 1777726161 | 21.11° C | 42% | 1023 hPa | 0 mm | - | - | - |
| 1777724959 | 20.56° C | 41% | 1024.1 hPa | 0 mm | - | - | - |
| 1777722558 | 20° C | 40% | 1024.1 hPa | 0 mm | - | - | - |
| 1777720758 | 20° C | 39% | 1024.1 hPa | 0 mm | - | - | - |
| 1777716861 | 19.44° C | 42% | 1025.1 hPa | 0 mm | - | - | - |
| 1777716258 | 19.44° C | 42% | 1025.1 hPa | 0 mm | - | - | - |
| 1777715358 | 18.89° C | 41% | 1025.1 hPa | 0 mm | - | - | - |
| 1777715061 | 18.33° C | 41% | 1026.1 hPa | 0 mm | - | - | - |
* Rain latest hour (hover to see other rain measurements)
** Current wind speed in m/s (hover to see current wind gust speed)